GBG102M KMZJ-KTUS
Flight info
| Callsign | GBG102M |
|---|---|
| Flight time | 0h 9m |
| Altitude | 9000 |
| Route | TUS |
| Aircraft | A332/H-SDE3GHIJ2J3J5M1RVWXY/LB2D1 |
Departure
| Time | 2026-05-08 05:18 |
|---|---|
| Airport | Pinal Airpark (KMZJ) |
Arrival
| Time | 2026-05-08 05:27 |
|---|---|
| Airport | Tucson International Airport (KTUS) |
| Time | Latitude | Longitude | Altitude | Speed | Heading |
|---|---|---|---|---|---|
| 2026-05-08 05:07 | 32.50745 | -111.31843 | 1903 ft | 0 kts | 42° |
| 2026-05-08 05:13 | 32.50747 | -111.31842 | 1889 ft | 1 kts | 39° |
| 2026-05-08 05:13 | 32.50749 | -111.31841 | 1903 ft | 1 kts | 31° |
| 2026-05-08 05:13 | 32.50756 | -111.31845 | 1903 ft | 1 kts | 340° |
| 2026-05-08 05:14 | 32.50755 | -111.31859 | 1903 ft | 3 kts | 264° |
| 2026-05-08 05:14 | 32.50720 | -111.31924 | 1898 ft | 14 kts | 252° |
| 2026-05-08 05:14 | 32.50756 | -111.32018 | 1888 ft | 15 kts | 313° |
| 2026-05-08 05:14 | 32.50855 | -111.32138 | 1887 ft | 26 kts | 315° |
| 2026-05-08 05:15 | 32.50999 | -111.32308 | 1886 ft | 31 kts | 315° |
| 2026-05-08 05:15 | 32.51152 | -111.32490 | 1897 ft | 32 kts | 314° |
| 2026-05-08 05:15 | 32.51297 | -111.32663 | 1887 ft | 28 kts | 314° |
| 2026-05-08 05:15 | 32.51439 | -111.32835 | 1889 ft | 30 kts | 315° |
| 2026-05-08 05:16 | 32.51591 | -111.33015 | 1881 ft | 29 kts | 315° |
| 2026-05-08 05:16 | 32.51715 | -111.33159 | 1878 ft | 25 kts | 314° |
| 2026-05-08 05:16 | 32.51731 | -111.33261 | 1888 ft | 7 kts | 254° |
| 2026-05-08 05:16 | 32.51671 | -111.33283 | 1882 ft | 12 kts | 181° |
| 2026-05-08 05:17 | 32.51620 | -111.33276 | 1879 ft | 4 kts | 152° |
| 2026-05-08 05:17 | 32.51574 | -111.33228 | 1879 ft | 32 kts | 139° |
| 2026-05-08 05:17 | 32.51237 | -111.32833 | 1889 ft | 104 kts | 134° |
| 2026-05-08 05:17 | 32.50586 | -111.32074 | 2076 ft | 144 kts | 136° |
| 2026-05-08 05:18 | 32.49878 | -111.31277 | 2854 ft | 143 kts | 136° |
| 2026-05-08 05:18 | 32.49125 | -111.30459 | 3363 ft | 155 kts | 137° |
| 2026-05-08 05:18 | 32.48143 | -111.29759 | 3709 ft | 180 kts | 154° |
| 2026-05-08 05:18 | 32.46886 | -111.29182 | 3921 ft | 208 kts | 158° |
| 2026-05-08 05:19 | 32.45420 | -111.28553 | 4095 ft | 239 kts | 155° |
| 2026-05-08 05:19 | 32.43891 | -111.27588 | 4339 ft | 260 kts | 145° |
| 2026-05-08 05:19 | 32.42359 | -111.26372 | 4909 ft | 266 kts | 142° |
| 2026-05-08 05:19 | 32.40846 | -111.25107 | 5285 ft | 268 kts | 141° |
| 2026-05-08 05:20 | 32.39323 | -111.23807 | 5319 ft | 270 kts | 141° |
| 2026-05-08 05:20 | 32.37815 | -111.22507 | 5107 ft | 276 kts | 141° |
| 2026-05-08 05:20 | 32.36235 | -111.21139 | 5021 ft | 278 kts | 141° |
| 2026-05-08 05:20 | 32.34678 | -111.19789 | 4821 ft | 277 kts | 141° |
| 2026-05-08 05:21 | 32.33127 | -111.18443 | 4539 ft | 276 kts | 141° |
| 2026-05-08 05:21 | 32.31592 | -111.17112 | 4550 ft | 275 kts | 141° |
| 2026-05-08 05:21 | 32.30108 | -111.15677 | 4924 ft | 274 kts | 134° |
| 2026-05-08 05:21 | 32.28731 | -111.14105 | 5414 ft | 275 kts | 133° |
| 2026-05-08 05:22 | 32.27382 | -111.12513 | 5906 ft | 273 kts | 133° |
| 2026-05-08 05:22 | 32.26067 | -111.10958 | 6301 ft | 273 kts | 134° |
| 2026-05-08 05:22 | 32.24696 | -111.09382 | 6367 ft | 274 kts | 134° |
| 2026-05-08 05:22 | 32.23356 | -111.07811 | 6052 ft | 266 kts | 133° |
| 2026-05-08 05:23 | 32.22074 | -111.06285 | 5451 ft | 260 kts | 133° |
| 2026-05-08 05:23 | 32.20812 | -111.04794 | 4933 ft | 252 kts | 133° |
| 2026-05-08 05:23 | 32.19604 | -111.03370 | 4643 ft | 236 kts | 134° |
| 2026-05-08 05:23 | 32.18485 | -111.02049 | 4344 ft | 218 kts | 134° |
| 2026-05-08 05:24 | 32.17468 | -111.00849 | 4086 ft | 195 kts | 134° |
| 2026-05-08 05:24 | 32.16556 | -110.99772 | 3836 ft | 177 kts | 134° |
| 2026-05-08 05:24 | 32.15729 | -110.98797 | 3608 ft | 159 kts | 134° |
| 2026-05-08 05:24 | 32.14984 | -110.97918 | 3441 ft | 144 kts | 134° |
| 2026-05-08 05:25 | 32.14304 | -110.97102 | 3181 ft | 135 kts | 134° |
| 2026-05-08 05:25 | 32.13666 | -110.96346 | 2931 ft | 127 kts | 135° |
| 2026-05-08 05:25 | 32.13054 | -110.95637 | 2776 ft | 122 kts | 133° |
| 2026-05-08 05:25 | 32.12462 | -110.94931 | 2665 ft | 126 kts | 133° |
| 2026-05-08 05:26 | 32.11827 | -110.94185 | 2599 ft | 120 kts | 135° |
| 2026-05-08 05:26 | 32.11366 | -110.93650 | 2616 ft | 64 kts | 135° |
| 2026-05-08 05:26 | 32.11094 | -110.93333 | 2625 ft | 55 kts | 135° |
| 2026-05-08 05:26 | 32.10807 | -110.93000 | 2634 ft | 60 kts | 134° |
| 2026-05-08 05:27 | 32.10593 | -110.92744 | 2644 ft | 42 kts | 135° |
| 2026-05-08 05:27 | 32.10393 | -110.92508 | 2663 ft | 40 kts | 135° |
| 2026-05-08 05:27 | 32.10250 | -110.92334 | 2663 ft | 17 kts | 134° |
| 2026-05-08 05:27 | 32.10243 | -110.92247 | 2666 ft | 11 kts | 54° |
| 2026-05-08 05:28 | 32.10303 | -110.92177 | 2663 ft | 14 kts | 44° |
| 2026-05-08 05:28 | 32.10388 | -110.92095 | 2666 ft | 14 kts | 21° |
| 2026-05-08 05:28 | 32.10473 | -110.92079 | 2660 ft | 15 kts | 8° |
| 2026-05-08 05:28 | 32.10555 | -110.92090 | 2664 ft | 6 kts | 290° |
| 2026-05-08 05:29 | 32.10544 | -110.92146 | 2665 ft | 6 kts | 211° |
| 2026-05-08 05:29 | 32.10514 | -110.92150 | 2654 ft | 0 kts | 179° |